sensor_id;sensor_type;location;lat;lon;timestamp;pressure;altitude;pressure_sealevel;temperature;humidity
26436;BME280;15351;52.408;16.826;2023-07-09T00:00:39;101273.38;;;21.74;55.90
26436;BME280;15351;52.408;16.826;2023-07-09T00:03:44;101275.74;;;21.71;55.98
26436;BME280;15351;52.408;16.826;2023-07-09T00:06:30;101278.08;;;21.70;56.24
26436;BME280;15351;52.408;16.826;2023-07-09T00:09:15;101275.48;;;21.68;56.51
26436;BME280;15351;52.408;16.826;2023-07-09T00:12:13;101270.70;;;21.64;56.53
26436;BME280;15351;52.408;16.826;2023-07-09T00:14:48;101270.36;;;21.61;56.57
26436;BME280;15351;52.408;16.826;2023-07-09T00:17:31;101274.57;;;21.55;56.75
26436;BME280;15351;52.408;16.826;2023-07-09T00:20:09;101271.17;;;21.53;56.89
26436;BME280;15351;52.408;16.826;2023-07-09T00:22:51;101273.49;;;21.49;57.07
26436;BME280;15351;52.408;16.826;2023-07-09T00:25:26;101278.88;;;21.45;57.02
26436;BME280;15351;52.408;16.826;2023-07-09T00:27:53;101278.89;;;21.41;57.23
26436;BME280;15351;52.408;16.826;2023-07-09T00:30:23;101278.15;;;21.38;57.44
26436;BME280;15351;52.408;16.826;2023-07-09T00:32:54;101280.88;;;21.36;57.49
26436;BME280;15351;52.408;16.826;2023-07-09T00:35:22;101281.80;;;21.34;57.80
26436;BME280;15351;52.408;16.826;2023-07-09T00:37:50;101277.69;;;21.31;57.75
26436;BME280;15351;52.408;16.826;2023-07-09T00:40:26;101271.27;;;21.29;57.93
26436;BME280;15351;52.408;16.826;2023-07-09T00:42:58;101277.20;;;21.25;57.96
26436;BME280;15351;52.408;16.826;2023-07-09T00:45:31;101273.39;;;21.21;58.02
26436;BME280;15351;52.408;16.826;2023-07-09T00:48:06;101271.64;;;21.16;58.29
26436;BME280;15351;52.408;16.826;2023-07-09T00:50:48;101268.79;;;21.13;58.45
26436;BME280;15351;52.408;16.826;2023-07-09T00:53:28;101268.51;;;21.09;58.50
26436;BME280;15351;52.408;16.826;2023-07-09T00:56:04;101267.02;;;21.09;58.63
26436;BME280;15351;52.408;16.826;2023-07-09T00:58:49;101262.52;;;21.08;58.91
26436;BME280;15351;52.408;16.826;2023-07-09T01:01:18;101257.48;;;21.09;58.95
26436;BME280;15351;52.408;16.826;2023-07-09T01:03:49;101253.65;;;21.08;58.97
26436;BME280;15351;52.408;16.826;2023-07-09T01:06:31;101251.65;;;21.05;59.00
26436;BME280;15351;52.408;16.826;2023-07-09T01:09:12;101256.02;;;21.03;58.87
26436;BME280;15351;52.408;16.826;2023-07-09T01:11:45;101254.09;;;21.02;59.16
26436;BME280;15351;52.408;16.826;2023-07-09T01:14:16;101255.35;;;21.02;59.12
26436;BME280;15351;52.408;16.826;2023-07-09T01:16:52;101255.82;;;21.02;59.13
26436;BME280;15351;52.408;16.826;2023-07-09T01:19:35;101255.05;;;21.02;59.10
26436;BME280;15351;52.408;16.826;2023-07-09T01:22:13;101254.31;;;21.00;59.20
26436;BME280;15351;52.408;16.826;2023-07-09T01:24:56;101250.54;;;20.99;59.38
26436;BME280;15351;52.408;16.826;2023-07-09T01:27:45;101249.48;;;20.97;59.25
26436;BME280;15351;52.408;16.826;2023-07-09T01:30:29;101250.81;;;20.93;59.18
26436;BME280;15351;52.408;16.826;2023-07-09T01:33:21;101252.26;;;20.90;59.56
26436;BME280;15351;52.408;16.826;2023-07-09T01:35:52;101252.84;;;20.91;59.56
26436;BME280;15351;52.408;16.826;2023-07-09T01:38:27;101255.53;;;20.93;59.60
26436;BME280;15351;52.408;16.826;2023-07-09T01:40:59;101257.54;;;20.91;59.52
26436;BME280;15351;52.408;16.826;2023-07-09T01:43:29;101260.19;;;20.88;59.63
26436;BME280;15351;52.408;16.826;2023-07-09T01:46:02;101260.10;;;20.87;59.51
26436;BME280;15351;52.408;16.826;2023-07-09T01:48:32;101261.23;;;20.84;59.55
26436;BME280;15351;52.408;16.826;2023-07-09T01:51:12;101261.14;;;20.82;59.76
26436;BME280;15351;52.408;16.826;2023-07-09T01:53:52;101260.96;;;20.78;59.75
26436;BME280;15351;52.408;16.826;2023-07-09T01:56:25;101255.96;;;20.73;59.75
26436;BME280;15351;52.408;16.826;2023-07-09T01:59:04;101253.58;;;20.69;59.99
26436;BME280;15351;52.408;16.826;2023-07-09T02:01:35;101256.17;;;20.69;60.10
26436;BME280;15351;52.408;16.826;2023-07-09T02:04:08;101255.82;;;20.70;60.33
26436;BME280;15351;52.408;16.826;2023-07-09T02:06:38;101252.27;;;20.70;60.24
26436;BME280;15351;52.408;16.826;2023-07-09T02:09:15;101254.70;;;20.67;60.25
26436;BME280;15351;52.408;16.826;2023-07-09T02:11:46;101255.00;;;20.65;60.52
26436;BME280;15351;52.408;16.826;2023-07-09T02:14:18;101255.47;;;20.63;60.53
26436;BME280;15351;52.408;16.826;2023-07-09T02:16:55;101251.49;;;20.58;60.62
26436;BME280;15351;52.408;16.826;2023-07-09T02:19:36;101253.63;;;20.55;60.61
26436;BME280;15351;52.408;16.826;2023-07-09T02:22:04;101250.41;;;20.50;60.68
26436;BME280;15351;52.408;16.826;2023-07-09T02:24:41;101246.23;;;20.46;60.86
26436;BME280;15351;52.408;16.826;2023-07-09T02:27:32;101242.58;;;20.44;60.99
26436;BME280;15351;52.408;16.826;2023-07-09T02:30:02;101244.55;;;20.43;60.99
26436;BME280;15351;52.408;16.826;2023-07-09T02:32:37;101242.79;;;20.41;61.21
26436;BME280;15351;52.408;16.826;2023-07-09T02:38:11;101240.07;;;20.37;61.17
26436;BME280;15351;52.408;16.826;2023-07-09T02:40:47;101244.64;;;20.32;61.11
26436;BME280;15351;52.408;16.826;2023-07-09T02:43:18;101243.44;;;20.27;61.45
26436;BME280;15351;52.408;16.826;2023-07-09T02:45:45;101246.06;;;20.25;61.52
26436;BME280;15351;52.408;16.826;2023-07-09T02:48:21;101253.65;;;20.24;61.84
26436;BME280;15351;52.408;16.826;2023-07-09T02:50:53;101263.60;;;20.25;62.06
26436;BME280;15351;52.408;16.826;2023-07-09T02:53:42;101269.14;;;20.30;62.07
26436;BME280;15351;52.408;16.826;2023-07-09T02:56:11;101271.52;;;20.34;62.01
26436;BME280;15351;52.408;16.826;2023-07-09T02:58:43;101272.69;;;20.34;61.94
26436;BME280;15351;52.408;16.826;2023-07-09T03:01:12;101274.23;;;20.36;62.15
26436;BME280;15351;52.408;16.826;2023-07-09T03:03:40;101277.10;;;20.37;62.05
26436;BME280;15351;52.408;16.826;2023-07-09T03:06:36;101277.77;;;20.35;62.16
26436;BME280;15351;52.408;16.826;2023-07-09T03:09:17;101279.52;;;20.35;62.20
26436;BME280;15351;52.408;16.826;2023-07-09T03:11:45;101285.20;;;20.35;62.06
26436;BME280;15351;52.408;16.826;2023-07-09T03:14:24;101287.02;;;20.31;61.82
26436;BME280;15351;52.408;16.826;2023-07-09T03:17:00;101283.56;;;20.30;62.18
26436;BME280;15351;52.408;16.826;2023-07-09T03:19:48;101279.38;;;20.31;62.18
26436;BME280;15351;52.408;16.826;2023-07-09T03:22:35;101284.65;;;20.31;62.14
26436;BME280;15351;52.408;16.826;2023-07-09T03:25:18;101286.52;;;20.30;62.25
26436;BME280;15351;52.408;16.826;2023-07-09T03:27:49;101288.14;;;20.27;62.21
26436;BME280;15351;52.408;16.826;2023-07-09T03:30:20;101290.17;;;20.23;62.28
26436;BME280;15351;52.408;16.826;2023-07-09T03:32:59;101289.55;;;20.21;62.38
26436;BME280;15351;52.408;16.826;2023-07-09T03:35:27;101291.79;;;20.22;62.41
26436;BME280;15351;52.408;16.826;2023-07-09T03:38:02;101299.02;;;20.24;62.50
26436;BME280;15351;52.408;16.826;2023-07-09T03:40:57;101300.52;;;20.24;62.43
26436;BME280;15351;52.408;16.826;2023-07-09T03:43:51;101297.59;;;20.25;62.50
26436;BME280;15351;52.408;16.826;2023-07-09T03:46:47;101295.23;;;20.24;62.36
26436;BME280;15351;52.408;16.826;2023-07-09T03:49:27;101295.58;;;20.23;62.45
26436;BME280;15351;52.408;16.826;2023-07-09T03:52:00;101302.83;;;20.24;62.77
26436;BME280;15351;52.408;16.826;2023-07-09T03:54:28;101307.08;;;20.25;62.75
26436;BME280;15351;52.408;16.826;2023-07-09T03:56:55;101310.11;;;20.27;62.87
26436;BME280;15351;52.408;16.826;2023-07-09T03:59:39;101308.48;;;20.29;62.80
26436;BME280;15351;52.408;16.826;2023-07-09T04:02:07;101311.42;;;20.32;62.88
26436;BME280;15351;52.408;16.826;2023-07-09T04:04:37;101312.63;;;20.34;62.81
26436;BME280;15351;52.408;16.826;2023-07-09T04:07:10;101311.36;;;20.36;62.97
26436;BME280;15351;52.408;16.826;2023-07-09T04:09:58;101308.80;;;20.41;63.05
26436;BME280;15351;52.408;16.826;2023-07-09T04:12:25;101310.20;;;20.45;62.97
26436;BME280;15351;52.408;16.826;2023-07-09T04:14:58;101309.25;;;20.48;63.05
26436;BME280;15351;52.408;16.826;2023-07-09T04:17:26;101309.47;;;20.47;62.79
26436;BME280;15351;52.408;16.826;2023-07-09T04:19:54;101312.60;;;20.50;62.92
26436;BME280;15351;52.408;16.826;2023-07-09T04:22:21;101312.54;;;20.53;62.83
26436;BME280;15351;52.408;16.826;2023-07-09T04:24:49;101310.67;;;20.56;62.64
26436;BME280;15351;52.408;16.826;2023-07-09T04:27:23;101313.46;;;20.60;62.68
26436;BME280;15351;52.408;16.826;2023-07-09T04:29:54;101312.65;;;20.64;62.65
26436;BME280;15351;52.408;16.826;2023-07-09T04:32:24;101316.70;;;20.68;62.54
26436;BME280;15351;52.408;16.826;2023-07-09T04:34:52;101318.91;;;20.70;62.49
26436;BME280;15351;52.408;16.826;2023-07-09T04:37:23;101319.52;;;20.75;62.55
26436;BME280;15351;52.408;16.826;2023-07-09T04:39:50;101322.27;;;20.81;62.51
26436;BME280;15351;52.408;16.826;2023-07-09T04:42:21;101316.77;;;20.86;62.45
26436;BME280;15351;52.408;16.826;2023-07-09T04:44:55;101316.64;;;20.92;62.23
26436;BME280;15351;52.408;16.826;2023-07-09T04:47:33;101321.89;;;20.96;61.97
26436;BME280;15351;52.408;16.826;2023-07-09T04:50:02;101323.48;;;21.01;61.82
26436;BME280;15351;52.408;16.826;2023-07-09T04:52:31;101325.31;;;21.03;61.66
26436;BME280;15351;52.408;16.826;2023-07-09T04:55:05;101324.44;;;21.07;61.67
26436;BME280;15351;52.408;16.826;2023-07-09T04:57:42;101327.91;;;21.09;61.66
26436;BME280;15351;52.408;16.826;2023-07-09T05:00:15;101330.90;;;21.11;61.54
26436;BME280;15351;52.408;16.826;2023-07-09T05:02:47;101333.13;;;21.15;61.56
26436;BME280;15351;52.408;16.826;2023-07-09T05:05:20;101338.05;;;21.21;61.49
26436;BME280;15351;52.408;16.826;2023-07-09T05:07:52;101341.35;;;21.30;61.48
26436;BME280;15351;52.408;16.826;2023-07-09T05:10:19;101344.83;;;21.37;61.07
26436;BME280;15351;52.408;16.826;2023-07-09T05:12:55;101339.02;;;21.41;60.88
26436;BME280;15351;52.408;16.826;2023-07-09T05:15:36;101338.10;;;21.46;60.36
26436;BME280;15351;52.408;16.826;2023-07-09T05:18:28;101340.64;;;21.50;60.04
26436;BME280;15351;52.408;16.826;2023-07-09T05:21:17;101342.61;;;21.57;59.87
26436;BME280;15351;52.408;16.826;2023-07-09T05:23:44;101345.29;;;21.62;59.52
26436;BME280;15351;52.408;16.826;2023-07-09T05:26:14;101346.03;;;21.64;59.45
26436;BME280;15351;52.408;16.826;2023-07-09T05:28:41;101347.40;;;21.66;59.45
26436;BME280;15351;52.408;16.826;2023-07-09T05:31:17;101347.63;;;21.68;59.23
26436;BME280;15351;52.408;16.826;2023-07-09T05:33:51;101350.10;;;21.71;59.20
26436;BME280;15351;52.408;16.826;2023-07-09T05:36:43;101356.79;;;21.75;59.09
26436;BME280;15351;52.408;16.826;2023-07-09T05:39:36;101359.89;;;21.79;59.09
26436;BME280;15351;52.408;16.826;2023-07-09T05:42:09;101357.30;;;21.84;58.92
26436;BME280;15351;52.408;16.826;2023-07-09T05:44:46;101357.26;;;21.88;58.72
26436;BME280;15351;52.408;16.826;2023-07-09T05:47:21;101363.08;;;21.91;58.47
26436;BME280;15351;52.408;16.826;2023-07-09T05:49:51;101360.49;;;21.94;58.40
26436;BME280;15351;52.408;16.826;2023-07-09T05:52:21;101364.98;;;21.98;58.38
26436;BME280;15351;52.408;16.826;2023-07-09T05:54:59;101368.73;;;22.02;58.35
26436;BME280;15351;52.408;16.826;2023-07-09T05:57:42;101369.00;;;22.08;58.19
26436;BME280;15351;52.408;16.826;2023-07-09T06:00:15;101373.84;;;22.13;58.13
26436;BME280;15351;52.408;16.826;2023-07-09T06:02:48;101376.74;;;22.18;57.91
26436;BME280;15351;52.408;16.826;2023-07-09T06:05:15;101374.73;;;22.23;57.75
26436;BME280;15351;52.408;16.826;2023-07-09T06:07:53;101368.27;;;22.28;57.52
26436;BME280;15351;52.408;16.826;2023-07-09T06:10:25;101367.95;;;22.34;57.75
26436;BME280;15351;52.408;16.826;2023-07-09T06:12:57;101366.19;;;22.38;57.64
26436;BME280;15351;52.408;16.826;2023-07-09T06:15:40;101369.64;;;22.43;57.56
26436;BME280;15351;52.408;16.826;2023-07-09T06:18:07;101364.29;;;22.50;57.05
26436;BME280;15351;52.408;16.826;2023-07-09T06:20:46;101362.13;;;22.56;56.98
26436;BME280;15351;52.408;16.826;2023-07-09T06:23:18;101363.10;;;22.61;56.47
26436;BME280;15351;52.408;16.826;2023-07-09T06:25:50;101362.08;;;22.67;56.41
26436;BME280;15351;52.408;16.826;2023-07-09T06:28:21;101359.80;;;22.72;55.94
26436;BME280;15351;52.408;16.826;2023-07-09T06:31:04;101361.86;;;22.79;55.39
26436;BME280;15351;52.408;16.826;2023-07-09T06:33:32;101360.76;;;22.87;54.64
26436;BME280;15351;52.408;16.826;2023-07-09T06:36:03;101362.61;;;22.95;54.37
26436;BME280;15351;52.408;16.826;2023-07-09T06:38:34;101359.88;;;23.04;54.17
26436;BME280;15351;52.408;16.826;2023-07-09T06:41:04;101359.73;;;23.13;54.06
26436;BME280;15351;52.408;16.826;2023-07-09T06:43:46;101360.92;;;23.22;53.51
26436;BME280;15351;52.408;16.826;2023-07-09T06:46:20;101361.50;;;23.32;53.60
26436;BME280;15351;52.408;16.826;2023-07-09T06:49:07;101365.15;;;23.47;53.62
26436;BME280;15351;52.408;16.826;2023-07-09T06:51:35;101364.77;;;23.60;53.32
26436;BME280;15351;52.408;16.826;2023-07-09T06:54:11;101367.40;;;23.70;52.95
26436;BME280;15351;52.408;16.826;2023-07-09T06:56:38;101363.78;;;23.81;52.65
26436;BME280;15351;52.408;16.826;2023-07-09T06:59:07;101362.36;;;23.92;52.38
26436;BME280;15351;52.408;16.826;2023-07-09T07:01:37;101361.66;;;24.01;52.09
26436;BME280;15351;52.408;16.826;2023-07-09T07:04:10;101363.00;;;24.08;51.97
26436;BME280;15351;52.408;16.826;2023-07-09T07:06:44;101366.72;;;24.19;52.10
26436;BME280;15351;52.408;16.826;2023-07-09T07:09:14;101358.64;;;24.32;51.89
26436;BME280;15351;52.408;16.826;2023-07-09T07:11:50;101361.23;;;24.46;51.68
26436;BME280;15351;52.408;16.826;2023-07-09T07:14:24;101356.30;;;24.59;51.20
26436;BME280;15351;52.408;16.826;2023-07-09T07:17:02;101354.69;;;24.73;50.60
26436;BME280;15351;52.408;16.826;2023-07-09T07:19:46;101356.29;;;24.90;50.80
26436;BME280;15351;52.408;16.826;2023-07-09T07:22:42;101359.50;;;25.06;50.16
26436;BME280;15351;52.408;16.826;2023-07-09T07:25:31;101353.00;;;25.22;49.59
26436;BME280;15351;52.408;16.826;2023-07-09T07:28:03;101355.14;;;25.40;49.86
26436;BME280;15351;52.408;16.826;2023-07-09T07:30:43;101354.52;;;25.59;49.76
26436;BME280;15351;52.408;16.826;2023-07-09T07:33:13;101357.34;;;25.72;48.89
26436;BME280;15351;52.408;16.826;2023-07-09T07:35:48;101358.16;;;25.88;48.59
26436;BME280;15351;52.408;16.826;2023-07-09T07:38:18;101350.56;;;26.04;49.32
26436;BME280;15351;52.408;16.826;2023-07-09T07:40:47;101349.77;;;26.20;49.17
26436;BME280;15351;52.408;16.826;2023-07-09T07:43:28;101351.19;;;26.33;48.46
26436;BME280;15351;52.408;16.826;2023-07-09T07:45:59;101350.71;;;26.45;47.74
26436;BME280;15351;52.408;16.826;2023-07-09T07:48:26;101350.66;;;26.56;46.99
26436;BME280;15351;52.408;16.826;2023-07-09T07:51:01;101346.75;;;26.68;47.26
26436;BME280;15351;52.408;16.826;2023-07-09T07:53:31;101346.80;;;26.84;47.35
26436;BME280;15351;52.408;16.826;2023-07-09T07:56:01;101346.90;;;27.04;47.20
26436;BME280;15351;52.408;16.826;2023-07-09T07:58:34;101350.42;;;27.20;47.12
26436;BME280;15351;52.408;16.826;2023-07-09T08:01:04;101348.69;;;27.35;47.02
26436;BME280;15351;52.408;16.826;2023-07-09T08:03:32;101350.98;;;27.47;46.11
26436;BME280;15351;52.408;16.826;2023-07-09T08:05:59;101354.07;;;27.56;45.76
26436;BME280;15351;52.408;16.826;2023-07-09T08:08:33;101354.79;;;27.68;46.06
26436;BME280;15351;52.408;16.826;2023-07-09T08:11:03;101362.02;;;27.79;45.62
26436;BME280;15351;52.408;16.826;2023-07-09T08:13:34;101362.77;;;27.91;45.62
26436;BME280;15351;52.408;16.826;2023-07-09T08:16:09;101356.35;;;28.01;45.31
26436;BME280;15351;52.408;16.826;2023-07-09T08:18:43;101355.45;;;28.13;44.91
26436;BME280;15351;52.408;16.826;2023-07-09T08:21:10;101354.48;;;28.23;44.49
26436;BME280;15351;52.408;16.826;2023-07-09T08:23:40;101357.30;;;28.35;44.61
26436;BME280;15351;52.408;16.826;2023-07-09T08:26:09;101360.38;;;28.46;43.97
26436;BME280;15351;52.408;16.826;2023-07-09T08:28:40;101356.14;;;28.50;43.01
26436;BME280;15351;52.408;16.826;2023-07-09T08:31:08;101356.98;;;28.46;42.84
26436;BME280;15351;52.408;16.826;2023-07-09T08:33:38;101357.41;;;28.58;43.18
26436;BME280;15351;52.408;16.826;2023-07-09T08:36:12;101356.64;;;28.73;42.86
26436;BME280;15351;52.408;16.826;2023-07-09T08:38:45;101356.27;;;28.82;41.95
26436;BME280;15351;52.408;16.826;2023-07-09T08:42:29;101354.38;;;28.83;41.36
26436;BME280;15351;52.408;16.826;2023-07-09T08:48:15;101350.15;;;29.14;41.99
26436;BME280;15351;52.408;16.826;2023-07-09T08:50:54;101349.25;;;29.28;41.15
26436;BME280;15351;52.408;16.826;2023-07-09T08:53:33;101349.80;;;29.43;41.81
26436;BME280;15351;52.408;16.826;2023-07-09T08:56:26;101344.96;;;29.58;41.09
26436;BME280;15351;52.408;16.826;2023-07-09T08:59:01;101348.19;;;29.69;40.07
26436;BME280;15351;52.408;16.826;2023-07-09T09:01:54;101350.27;;;29.75;39.68
26436;BME280;15351;52.408;16.826;2023-07-09T09:04:38;101343.98;;;29.86;40.27
26436;BME280;15351;52.408;16.826;2023-07-09T09:07:41;101344.29;;;30.02;40.40
26436;BME280;15351;52.408;16.826;2023-07-09T09:10:26;101346.08;;;30.08;39.06
26436;BME280;15351;52.408;16.826;2023-07-09T09:16:27;101344.12;;;30.23;39.09
26436;BME280;15351;52.408;16.826;2023-07-09T09:19:11;101343.27;;;30.36;39.40
26436;BME280;15351;52.408;16.826;2023-07-09T09:21:47;101341.69;;;30.46;39.00
26436;BME280;15351;52.408;16.826;2023-07-09T09:24:31;101347.98;;;30.58;38.38
26436;BME280;15351;52.408;16.826;2023-07-09T09:27:27;101345.45;;;30.67;37.94
26436;BME280;15351;52.408;16.826;2023-07-09T09:29:58;101345.02;;;30.75;37.47
26436;BME280;15351;52.408;16.826;2023-07-09T09:32:43;101348.20;;;30.84;37.36
26436;BME280;15351;52.408;16.826;2023-07-09T09:38:22;101346.52;;;30.86;37.96
26436;BME280;15351;52.408;16.826;2023-07-09T09:40:59;101348.02;;;30.95;37.04
26436;BME280;15351;52.408;16.826;2023-07-09T09:43:34;101352.15;;;31.02;36.75
26436;BME280;15351;52.408;16.826;2023-07-09T09:46:09;101350.85;;;31.07;36.26
26436;BME280;15351;52.408;16.826;2023-07-09T09:48:54;101353.45;;;31.12;35.85
26436;BME280;15351;52.408;16.826;2023-07-09T09:51:33;101346.77;;;30.89;33.23
26436;BME280;15351;52.408;16.826;2023-07-09T09:54:31;101346.37;;;30.75;33.77
26436;BME280;15351;52.408;16.826;2023-07-09T09:57:32;101346.36;;;30.94;34.18
26436;BME280;15351;52.408;16.826;2023-07-09T10:00:30;101341.36;;;31.06;34.18
26436;BME280;15351;52.408;16.826;2023-07-09T10:59:29;101320.84;;;32.64;32.37
26436;BME280;15351;52.408;16.826;2023-07-09T11:06:43;101321.58;;;32.82;32.31
26436;BME280;15351;52.408;16.826;2023-07-09T11:49:00;101300.11;;;33.20;29.60
26436;BME280;15351;52.408;16.826;2023-07-09T12:40:37;101268.94;;;33.19;28.84
26436;BME280;15351;52.408;16.826;2023-07-09T13:26:39;101239.56;;;32.78;29.33
26436;BME280;15351;52.408;16.826;2023-07-09T13:30:15;101234.39;;;32.66;28.90
26436;BME280;15351;52.408;16.826;2023-07-09T13:34:41;101231.76;;;32.63;28.89
26436;BME280;15351;52.408;16.826;2023-07-09T13:43:20;101212.52;;;32.59;29.48
26436;BME280;15351;52.408;16.826;2023-07-09T13:46:08;101210.70;;;32.57;28.95
26436;BME280;15351;52.408;16.826;2023-07-09T13:49:28;101206.52;;;32.52;28.73
26436;BME280;15351;52.408;16.826;2023-07-09T13:52:22;101203.39;;;32.44;28.09
26436;BME280;15351;52.408;16.826;2023-07-09T13:56:05;101202.08;;;32.33;27.81
26436;BME280;15351;52.408;16.826;2023-07-09T14:01:43;101199.61;;;32.33;28.75
26436;BME280;15351;52.408;16.826;2023-07-09T14:04:59;101194.54;;;32.27;28.57
26436;BME280;15351;52.408;16.826;2023-07-09T14:15:28;101205.82;;;32.23;28.23
26436;BME280;15351;52.408;16.826;2023-07-09T14:26:37;101195.73;;;32.03;28.12
26436;BME280;15351;52.408;16.826;2023-07-09T14:34:25;101197.55;;;31.90;27.94
26436;BME280;15351;52.408;16.826;2023-07-09T14:36:59;101186.69;;;31.77;27.28
26436;BME280;15351;52.408;16.826;2023-07-09T14:40:26;101194.52;;;31.75;27.81
26436;BME280;15351;52.408;16.826;2023-07-09T14:43:31;101187.63;;;31.72;27.80
26436;BME280;15351;52.408;16.826;2023-07-09T14:46:36;101184.02;;;31.66;27.76
26436;BME280;15351;52.408;16.826;2023-07-09T14:49:31;101176.80;;;31.60;27.98
26436;BME280;15351;52.408;16.826;2023-07-09T14:52:34;101181.75;;;31.55;27.91
26436;BME280;15351;52.408;16.826;2023-07-09T14:55:37;101177.65;;;31.50;27.77
26436;BME280;15351;52.408;16.826;2023-07-09T14:58:33;101177.69;;;31.45;27.78
26436;BME280;15351;52.408;16.826;2023-07-09T15:01:04;101176.84;;;31.39;27.87
26436;BME280;15351;52.408;16.826;2023-07-09T15:03:37;101174.91;;;31.31;27.80
26436;BME280;15351;52.408;16.826;2023-07-09T15:06:06;101171.03;;;31.20;27.72
26436;BME280;15351;52.408;16.826;2023-07-09T15:08:41;101168.37;;;31.10;28.02
26436;BME280;15351;52.408;16.826;2023-07-09T15:11:09;101169.80;;;31.06;28.17
26436;BME280;15351;52.408;16.826;2023-07-09T15:13:39;101168.09;;;31.02;28.11
26436;BME280;15351;52.408;16.826;2023-07-09T15:16:22;101172.92;;;30.94;28.14
26436;BME280;15351;52.408;16.826;2023-07-09T15:19:00;101172.79;;;30.90;28.54
26436;BME280;15351;52.408;16.826;2023-07-09T15:21:28;101173.95;;;30.83;28.23
26436;BME280;15351;52.408;16.826;2023-07-09T15:23:58;101167.16;;;30.79;28.48
26436;BME280;15351;52.408;16.826;2023-07-09T15:26:26;101167.50;;;30.78;28.52
26436;BME280;15351;52.408;16.826;2023-07-09T15:28:56;101162.60;;;30.77;28.53
26436;BME280;15351;52.408;16.826;2023-07-09T15:31:33;101160.59;;;30.77;28.52
26436;BME280;15351;52.408;16.826;2023-07-09T15:34:03;101157.98;;;30.76;28.81
26436;BME280;15351;52.408;16.826;2023-07-09T15:36:30;101161.92;;;30.72;28.76
26436;BME280;15351;52.408;16.826;2023-07-09T15:38:58;101164.00;;;30.69;28.82
26436;BME280;15351;52.408;16.826;2023-07-09T15:41:28;101160.77;;;30.67;28.67
26436;BME280;15351;52.408;16.826;2023-07-09T15:43:59;101155.87;;;30.64;28.62
26436;BME280;15351;52.408;16.826;2023-07-09T15:46:26;101153.34;;;30.60;28.60
26436;BME280;15351;52.408;16.826;2023-07-09T15:48:55;101150.69;;;30.56;28.88
26436;BME280;15351;52.408;16.826;2023-07-09T15:51:32;101150.33;;;30.53;28.79
26436;BME280;15351;52.408;16.826;2023-07-09T15:54:18;101144.56;;;30.49;28.73
26436;BME280;15351;52.408;16.826;2023-07-09T15:56:51;101149.19;;;30.47;28.85
26436;BME280;15351;52.408;16.826;2023-07-09T15:59:31;101148.21;;;30.44;29.05
26436;BME280;15351;52.408;16.826;2023-07-09T16:02:12;101144.66;;;30.40;29.08
26436;BME280;15351;52.408;16.826;2023-07-09T16:04:43;101143.59;;;30.36;28.59
26436;BME280;15351;52.408;16.826;2023-07-09T16:07:27;101140.80;;;30.33;28.78
26436;BME280;15351;52.408;16.826;2023-07-09T16:10:03;101134.58;;;30.29;28.87
26436;BME280;15351;52.408;16.826;2023-07-09T16:12:32;101140.11;;;30.25;29.13
26436;BME280;15351;52.408;16.826;2023-07-09T16:15:09;101135.52;;;30.21;29.07
26436;BME280;15351;52.408;16.826;2023-07-09T16:17:37;101131.61;;;30.16;29.27
26436;BME280;15351;52.408;16.826;2023-07-09T16:20:07;101133.87;;;30.12;29.62
26436;BME280;15351;52.408;16.826;2023-07-09T16:22:44;101132.29;;;30.07;30.26
26436;BME280;15351;52.408;16.826;2023-07-09T16:25:30;101127.50;;;29.99;30.84
26436;BME280;15351;52.408;16.826;2023-07-09T16:28:23;101127.40;;;29.91;30.47
26436;BME280;15351;52.408;16.826;2023-07-09T16:30:58;101124.25;;;29.82;31.23
26436;BME280;15351;52.408;16.826;2023-07-09T16:33:34;101125.52;;;29.72;30.98
26436;BME280;15351;52.408;16.826;2023-07-09T16:44:16;101111.35;;;29.50;30.29
26436;BME280;15351;52.408;16.826;2023-07-09T16:46:59;101109.03;;;29.45;31.03
26436;BME280;15351;52.408;16.826;2023-07-09T16:49:58;101106.15;;;29.40;30.90
26436;BME280;15351;52.408;16.826;2023-07-09T16:52:44;101104.77;;;29.36;30.97
26436;BME280;15351;52.408;16.826;2023-07-09T16:55:34;101107.23;;;29.33;30.83
26436;BME280;15351;52.408;16.826;2023-07-09T16:58:04;101104.18;;;29.30;30.64
26436;BME280;15351;52.408;16.826;2023-07-09T17:00:40;101106.36;;;29.27;30.91
26436;BME280;15351;52.408;16.826;2023-07-09T17:03:13;101111.40;;;29.24;30.80
26436;BME280;15351;52.408;16.826;2023-07-09T17:05:49;101108.13;;;29.21;30.57
26436;BME280;15351;52.408;16.826;2023-07-09T17:08:17;101114.98;;;29.18;30.91
26436;BME280;15351;52.408;16.826;2023-07-09T17:10:48;101113.77;;;29.14;30.83
26436;BME280;15351;52.408;16.826;2023-07-09T17:13:42;101112.20;;;29.12;30.85
26436;BME280;15351;52.408;16.826;2023-07-09T17:16:25;101113.53;;;29.07;31.17
26436;BME280;15351;52.408;16.826;2023-07-09T17:18:54;101108.91;;;29.05;31.01
26436;BME280;15351;52.408;16.826;2023-07-09T17:21:29;101111.02;;;29.02;30.86
26436;BME280;15351;52.408;16.826;2023-07-09T17:23:55;101111.60;;;28.99;30.86
26436;BME280;15351;52.408;16.826;2023-07-09T17:26:24;101114.70;;;28.95;30.89
26436;BME280;15351;52.408;16.826;2023-07-09T17:28:55;101114.91;;;28.91;31.09
26436;BME280;15351;52.408;16.826;2023-07-09T17:31:21;101118.38;;;28.87;31.19
26436;BME280;15351;52.408;16.826;2023-07-09T17:34:13;101117.55;;;28.81;31.33
26436;BME280;15351;52.408;16.826;2023-07-09T17:36:44;101118.09;;;28.77;31.43
26436;BME280;15351;52.408;16.826;2023-07-09T17:39:22;101117.41;;;28.71;31.76